Aviation Digital Data Service (ADDS)

Output produced by METARs form (1831 UTC 25 March 2019)
found at http://www.aviationweather.gov/metar/data/
 
METAR text: MMOX 251741Z 22004KT 8SM SKC 26/00 A3022 RMK SLP110 57027 965 HZY
Conditions at: MMOX (OAXACA/XOXOCOTLA, MX) observed 1741 UTC 25 March 2019
Temperature: 26.0°C (79°F)
Dewpoint: 0.0°C (32°F) [RH = 18%]
Pressure (altimeter): 30.22 inches Hg (1023.5 mb)
[Sea-level pressure: 1011.0 mb]
Winds: from the SW (220 degrees) at 5 MPH (4 knots; 2.1 m/s)
Visibility: 8 miles (13 km)
Ceiling: at least 12,000 feet AGL
Clouds: clear skies
Weather: no significant weather observed at this time

METAR text: MMOX 251648Z 00000KT 8SM SKC 24/00 A3026 RMK HZY
Conditions at: MMOX (OAXACA/XOXOCOTLA, MX) observed 1648 UTC 25 March 2019
Temperature: 24.0°C (75°F)
Dewpoint: 0.0°C (32°F) [RH = 20%]
Pressure (altimeter): 30.26 inches Hg (1024.8 mb)
Winds: calm
Visibility: 8 miles (13 km)
Ceiling: at least 12,000 feet AGL
Clouds: clear skies
Weather: no significant weather observed at this time

METAR text: MMOX 251546Z 34004KT 8SM SKC 21/06 A3028 RMK HZY
Conditions at: MMOX (OAXACA/XOXOCOTLA, MX) observed 1546 UTC 25 March 2019
Temperature: 21.0°C (70°F)
Dewpoint: 6.0°C (43°F) [RH = 38%]
Pressure (altimeter): 30.28 inches Hg (1025.5 mb)
Winds: from the NNW (340 degrees) at 5 MPH (4 knots; 2.1 m/s)
Visibility: 8 miles (13 km)
Ceiling: at least 12,000 feet AGL
Clouds: clear skies
Weather: no significant weather observed at this time

METAR text: MMOX 251440Z 02005KT 7SM SKC 17/07 A3030 RMK SLP156 52013 953 HZY
Conditions at: MMOX (OAXACA/XOXOCOTLA, MX) observed 1440 UTC 25 March 2019
Temperature: 17.0°C (63°F)
Dewpoint: 7.0°C (45°F) [RH = 52%]
Pressure (altimeter): 30.30 inches Hg (1026.2 mb)
[Sea-level pressure: 1015.6 mb]
Winds: from the NNE (20 degrees) at 6 MPH (5 knots; 2.6 m/s)
Visibility: 7 miles (11 km)
Ceiling: at least 12,000 feet AGL
Clouds: clear skies
Weather: no significant weather observed at this time

METAR text: MMOX 251342Z 36007KT 7SM SKC 14/07 A3029 RMK HZY
Conditions at: MMOX (OAXACA/XOXOCOTLA, MX) observed 1342 UTC 25 March 2019
Temperature: 14.0°C (57°F)
Dewpoint: 7.0°C (45°F) [RH = 63%]
Pressure (altimeter): 30.29 inches Hg (1025.8 mb)
Winds: from the N (360 degrees) at 8 MPH (7 knots; 3.6 m/s)
Visibility: 7 miles (11 km)
Ceiling: at least 12,000 feet AGL
Clouds: clear skies
Weather: no significant weather observed at this time

METAR text: MMOX 251242Z 36003KT 7SM SKC 12/07 A3027 RMK HZY
Conditions at: MMOX (OAXACA/XOXOCOTLA, MX) observed 1242 UTC 25 March 2019
Temperature: 12.0°C (54°F)
Dewpoint: 7.0°C (45°F) [RH = 71%]
Pressure (altimeter): 30.27 inches Hg (1025.1 mb)
Winds: from the N (360 degrees) at 3 MPH (3 knots; 1.5 m/s)
Visibility: 7 miles (11 km)
Ceiling: at least 12,000 feet AGL
Clouds: clear skies
Weather: no significant weather observed at this time

METAR text: MMOX 251216Z RTD 35006KT 7SM SKC 11/07 A3026 RMK SLP138 5//// 955 HZY RTS
Conditions at: MMOX (OAXACA/XOXOCOTLA, MX) observed 1216 UTC 25 March 2019
Temperature: 11.0°C (52°F)
Dewpoint: 7.0°C (45°F) [RH = 76%]
Pressure (altimeter): 30.26 inches Hg (1024.8 mb)
[Sea-level pressure: 1013.8 mb]
Winds: from the N (350 degrees) at 7 MPH (6 knots; 3.1 m/s)
Visibility: 7 miles (11 km)
Ceiling: at least 12,000 feet AGL
Clouds: clear skies
Weather: no significant weather observed at this time

METAR text: MMOX 250144Z 18007KT 7SM SCT120 23/02 A3020 RMK 8/030
Conditions at: MMOX (OAXACA/XOXOCOTLA, MX) observed 0144 UTC 25 March 2019
Temperature: 23.0°C (73°F)
Dewpoint: 2.0°C (36°F) [RH = 25%]
Pressure (altimeter): 30.20 inches Hg (1022.8 mb)
Winds: from the S (180 degrees) at 8 MPH (7 knots; 3.6 m/s)
Visibility: 7 miles (11 km)
Ceiling: at least 12,000 feet AGL
Clouds: scattered clouds at 12000 feet AGL
Weather: no significant weather observed at this time

METAR text: MMOX 250042Z 12007KT 12SM SCT120 SCT210 26/00 A3017 RMK 8/036
Conditions at: MMOX (OAXACA/XOXOCOTLA, MX) observed 0042 UTC 25 March 2019
Temperature: 26.0°C (79°F)
Dewpoint: 0.0°C (32°F) [RH = 18%]
Pressure (altimeter): 30.17 inches Hg (1021.8 mb)
Winds: from the ESE (120 degrees) at 8 MPH (7 knots; 3.6 m/s)
Visibility: 12 miles (19 km)
Ceiling: at least 12,000 feet AGL
Clouds: scattered clouds at 12000 feet AGL
scattered clouds at 21000 feet AGL
Weather: no significant weather observed at this time

METAR text: MMOX 242350Z 09008KT 12SM BKN050 27/00 A3014 RMK SLP103 52007 956 8/500
Conditions at: MMOX (OAXACA/XOXOCOTLA, MX) observed 2350 UTC 24 March 2019
Temperature: 27.0°C (81°F)
Dewpoint: 0.0°C (32°F) [RH = 17%]
Pressure (altimeter): 30.14 inches Hg (1020.7 mb)
[Sea-level pressure: 1010.3 mb]
Winds: from the E (90 degrees) at 9 MPH (8 knots; 4.1 m/s)
Visibility: 12 miles (19 km)
Ceiling: 5000 feet AGL
Clouds: broken clouds at 5000 feet AGL
Weather: no significant weather observed at this time

METAR text: MMOX 242243Z 12007KT 12SM SCT040 BKN120 28/03 A3013 RMK 8/430
Conditions at: MMOX (OAXACA/XOXOCOTLA, MX) observed 2243 UTC 24 March 2019
Temperature: 28.0°C (82°F)
Dewpoint: 3.0°C (37°F) [RH = 20%]
Pressure (altimeter): 30.13 inches Hg (1020.4 mb)
Winds: from the ESE (120 degrees) at 8 MPH (7 knots; 3.6 m/s)
Visibility: 12 miles (19 km)
Ceiling: 12000 feet AGL
Clouds: scattered clouds at 4000 feet AGL
broken clouds at 12000 feet AGL
Weather: no significant weather observed at this time

METAR text: MMOX 242143Z 15010KT 12SM SCT040 SCT120 30/02 A3013 RMK 8/430
Conditions at: MMOX (OAXACA/XOXOCOTLA, MX) observed 2143 UTC 24 March 2019
Temperature: 30.0°C (86°F)
Dewpoint: 2.0°C (36°F) [RH = 17%]
Pressure (altimeter): 30.13 inches Hg (1020.4 mb)
Winds: from the SSE (150 degrees) at 12 MPH (10 knots; 5.1 m/s)
Visibility: 12 miles (19 km)
Ceiling: at least 12,000 feet AGL
Clouds: scattered clouds at 4000 feet AGL
scattered clouds at 12000 feet AGL
Weather: no significant weather observed at this time

METAR text: MMOX 242045Z 00000KT 12SM SCT040 SCT120 28/03 A3016 RMK SLP088 57037 911 8/430
Conditions at: MMOX (OAXACA/XOXOCOTLA, MX) observed 2045 UTC 24 March 2019
Temperature: 28.0°C (82°F)
Dewpoint: 3.0°C (37°F) [RH = 20%]
Pressure (altimeter): 30.16 inches Hg (1021.4 mb)
[Sea-level pressure: 1008.8 mb]
Winds: calm
Visibility: 12 miles (19 km)
Ceiling: at least 12,000 feet AGL
Clouds: scattered clouds at 4000 feet AGL
scattered clouds at 12000 feet AGL
Weather: no significant weather observed at this time

METAR text: MMOX 241944Z 22010KT 12SM SCT040 SCT120 28/03 A3019 RMK 8/430
Conditions at: MMOX (OAXACA/XOXOCOTLA, MX) observed 1944 UTC 24 March 2019
Temperature: 28.0°C (82°F)
Dewpoint: 3.0°C (37°F) [RH = 20%]
Pressure (altimeter): 30.19 inches Hg (1022.4 mb)
Winds: from the SW (220 degrees) at 12 MPH (10 knots; 5.1 m/s)
Visibility: 12 miles (19 km)
Ceiling: at least 12,000 feet AGL
Clouds: scattered clouds at 4000 feet AGL
scattered clouds at 12000 feet AGL
Weather: no significant weather observed at this time

METAR text: MMOX 241840Z 19007KT 12SM SCT040 SCT120 27/04 A3023 RMK 8/430
Conditions at: MMOX (OAXACA/XOXOCOTLA, MX) observed 1840 UTC 24 March 2019
Temperature: 27.0°C (81°F)
Dewpoint: 4.0°C (39°F) [RH = 23%]
Pressure (altimeter): 30.23 inches Hg (1023.8 mb)
Winds: from the S (190 degrees) at 8 MPH (7 knots; 3.6 m/s)
Visibility: 12 miles (19 km)
Ceiling: at least 12,000 feet AGL
Clouds: scattered clouds at 4000 feet AGL
scattered clouds at 12000 feet AGL
Weather: no significant weather observed at this time

METAR text: MMOX 241749Z 17006KT 8SM FEW025 26/06 A3026 RMK SLP130 57015 909 8/100 HZY
Conditions at: MMOX (OAXACA/XOXOCOTLA, MX) observed 1749 UTC 24 March 2019
Temperature: 26.0°C (79°F)
Dewpoint: 6.0°C (43°F) [RH = 28%]
Pressure (altimeter): 30.26 inches Hg (1024.8 mb)
[Sea-level pressure: 1013.0 mb]
Winds: from the S (170 degrees) at 7 MPH (6 knots; 3.1 m/s)
Visibility: 8 miles (13 km)
Ceiling: at least 12,000 feet AGL
Clouds: few clouds at 2500 feet AGL
Weather: no significant weather observed at this time

METAR text: MMOX 241643Z 00000KT 8SM SKC 24/06 A3031 RMK HZY
Conditions at: MMOX (OAXACA/XOXOCOTLA, MX) observed 1643 UTC 24 March 2019
Temperature: 24.0°C (75°F)
Dewpoint: 6.0°C (43°F) [RH = 31%]
Pressure (altimeter): 30.31 inches Hg (1026.5 mb)
Winds: calm
Visibility: 8 miles (13 km)
Ceiling: at least 12,000 feet AGL
Clouds: clear skies
Weather: no significant weather observed at this time

METAR text: MMOX 241550Z 28005KT 8SM SKC 21/08 A3032 RMK HZY
Conditions at: MMOX (OAXACA/XOXOCOTLA, MX) observed 1550 UTC 24 March 2019
Temperature: 21.0°C (70°F)
Dewpoint: 8.0°C (46°F) [RH = 43%]
Pressure (altimeter): 30.32 inches Hg (1026.8 mb)
Winds: from the W (280 degrees) at 6 MPH (5 knots; 2.6 m/s)
Visibility: 8 miles (13 km)
Ceiling: at least 12,000 feet AGL
Clouds: clear skies
Weather: no significant weather observed at this time

METAR text: MMOX 241440Z 36004KT 8SM SKC 16/10 A3033 RMK SLP166 52011 904 HZY
Conditions at: MMOX (OAXACA/XOXOCOTLA, MX) observed 1440 UTC 24 March 2019
Temperature: 16.0°C (61°F)
Dewpoint: 10.0°C (50°F) [RH = 68%]
Pressure (altimeter): 30.33 inches Hg (1027.2 mb)
[Sea-level pressure: 1016.6 mb]
Winds: from the N (360 degrees) at 5 MPH (4 knots; 2.1 m/s)
Visibility: 8 miles (13 km)
Ceiling: at least 12,000 feet AGL
Clouds: clear skies
Weather: no significant weather observed at this time

METAR text: MMOX 241348Z 35005KT 8SM SKC 14/10 A3032 RMK HZY
Conditions at: MMOX (OAXACA/XOXOCOTLA, MX) observed 1348 UTC 24 March 2019
Temperature: 14.0°C (57°F)
Dewpoint: 10.0°C (50°F) [RH = 77%]
Pressure (altimeter): 30.32 inches Hg (1026.8 mb)
Winds: from the N (350 degrees) at 6 MPH (5 knots; 2.6 m/s)
Visibility: 8 miles (13 km)
Ceiling: at least 12,000 feet AGL
Clouds: clear skies
Weather: no significant weather observed at this time

METAR text: MMOX 241249Z 36004KT 8SM SKC 12/10 A3030 RMK HZY
Conditions at: MMOX (OAXACA/XOXOCOTLA, MX) observed 1249 UTC 24 March 2019
Temperature: 12.0°C (54°F)
Dewpoint: 10.0°C (50°F) [RH = 88%]
Pressure (altimeter): 30.30 inches Hg (1026.2 mb)
Winds: from the N (360 degrees) at 5 MPH (4 knots; 2.1 m/s)
Visibility: 8 miles (13 km)
Ceiling: at least 12,000 feet AGL
Clouds: clear skies
Weather: no significant weather observed at this time

METAR text: MMOX 241213Z RTD 36006KT 8SM SKC 12/09 A3029 RMK SLP157 5//// 908 HZY RTS
Conditions at: MMOX (OAXACA/XOXOCOTLA, MX) observed 1213 UTC 24 March 2019
Temperature: 12.0°C (54°F)
Dewpoint: 9.0°C (48°F) [RH = 82%]
Pressure (altimeter): 30.29 inches Hg (1025.8 mb)
[Sea-level pressure: 1015.7 mb]
Winds: from the N (360 degrees) at 7 MPH (6 knots; 3.1 m/s)
Visibility: 8 miles (13 km)
Ceiling: at least 12,000 feet AGL
Clouds: clear skies
Weather: no significant weather observed at this time

Forecast for: MMOX (OAXACA/XOXOCOTLA, MX)
Text: TAF MMOX 251632Z 2518/2618 04010KT P6SM SKC
Forecast period: 1800 UTC 25 March 2019 to 0300 UTC 26 March 2019
Forecast type: FROM: standard forecast or significant change
Winds: from the NE (40 degrees) at 12 MPH (10 knots; 5.1 m/s)
Visibility: 6 or more miles 10+ km)
Clouds: clear skies
Weather: no significant weather forecast for this period
Text: FM260300 00000KT P6SM SCT040
Forecast period: 0300 to 1200 UTC 26 March 2019
Forecast type: FROM: standard forecast or significant change
Winds: calm
Visibility: 6 or more miles 10+ km)
Ceiling: at least 12,000 feet AGL
Clouds: scattered clouds at 4000 feet AGL
Weather: no significant weather forecast for this period
Text: FM261200 34005KT P6SM SKC
Forecast period: 1200 to 1800 UTC 26 March 2019
Forecast type: FROM: standard forecast or significant change
Winds: from the NNW (340 degrees) at 6 MPH (5 knots; 2.6 m/s)
Visibility: 6 or more miles 10+ km)
Clouds: clear skies
Weather: no significant weather forecast for this period
Text: FM261800 20010KT P6SM SKC
Forecast period: 1800 to 1800 UTC 26 March 2019
Forecast type: FROM: standard forecast or significant change
Winds: from the SSW (200 degrees) at 12 MPH (10 knots; 5.1 m/s)
Visibility: 6 or more miles 10+ km)
Clouds: clear skies
Weather: no significant weather forecast for this period